createdAt,value
2023-01-10T00:02:26.098Z,5.80
2023-01-10T00:04:52.845Z,5.79
2023-01-10T00:07:19.550Z,5.83
2023-01-10T00:09:46.233Z,5.80
2023-01-10T00:12:31.448Z,5.80
2023-01-10T00:14:58.191Z,5.80
2023-01-10T00:17:24.943Z,5.79
2023-01-10T00:19:51.649Z,5.76
2023-01-10T00:22:21.356Z,5.70
2023-01-10T00:24:48.183Z,5.72
2023-01-10T00:27:20.627Z,5.68
2023-01-10T00:29:47.288Z,5.69
2023-01-10T00:32:14.004Z,5.67
2023-01-10T00:34:40.641Z,5.65
2023-01-10T00:37:07.325Z,5.63
2023-01-10T00:39:33.999Z,5.60
2023-01-10T00:42:19.056Z,5.60
2023-01-10T00:44:46.846Z,5.58
2023-01-10T00:47:13.640Z,5.57
2023-01-10T00:49:40.697Z,5.58
2023-01-10T00:52:07.440Z,5.58
2023-01-10T00:54:34.133Z,5.58
2023-01-10T00:57:00.895Z,5.59
2023-01-10T00:59:29.366Z,5.58
2023-01-10T01:01:56.121Z,5.56
2023-01-10T01:04:23.009Z,5.53
2023-01-10T01:06:50.705Z,5.53
2023-01-10T01:09:17.672Z,5.52
2023-01-10T01:11:44.370Z,5.47
2023-01-10T01:14:11.024Z,5.50
2023-01-10T01:16:37.794Z,5.48
2023-01-10T01:19:04.467Z,5.47
2023-01-10T01:21:31.127Z,5.45
2023-01-10T01:23:57.941Z,5.45
2023-01-10T01:26:25.241Z,5.44
2023-01-10T01:28:52.263Z,5.47
2023-01-10T01:31:19.114Z,5.47
2023-01-10T01:33:46.451Z,5.46
2023-01-10T01:36:13.226Z,5.46
2023-01-10T01:38:40.696Z,5.45
2023-01-10T01:41:26.489Z,5.47
2023-01-10T01:44:14.261Z,5.48
2023-01-10T01:46:44.737Z,5.46
2023-01-10T01:49:18.673Z,5.44
2023-01-10T01:51:47.917Z,5.41
2023-01-10T01:54:16.168Z,5.42
2023-01-10T01:56:54.261Z,5.42
2023-01-10T01:59:40.776Z,5.38
2023-01-10T02:02:17.582Z,5.34
2023-01-10T02:05:02.908Z,5.35
2023-01-10T02:07:33.989Z,5.32
2023-01-10T02:10:13.360Z,5.30
2023-01-10T02:12:40.339Z,5.32
2023-01-10T02:15:07.599Z,5.31
2023-01-10T02:17:34.279Z,5.29
2023-01-10T02:20:05.554Z,5.28
2023-01-10T02:23:03.952Z,5.29
2023-01-10T02:26:10.295Z,5.32
2023-01-10T02:28:50.333Z,5.28
2023-01-10T02:31:43.373Z,5.26
2023-01-10T02:34:36.598Z,5.23
2023-01-10T02:37:28.098Z,5.24
2023-01-10T02:40:07.054Z,5.19
2023-01-10T02:42:43.424Z,5.20
2023-01-10T02:45:17.109Z,5.19
2023-01-10T02:47:43.813Z,5.17
2023-01-10T02:50:28.074Z,5.16
2023-01-10T02:52:59.515Z,5.14
2023-01-10T02:55:37.874Z,5.18
2023-01-10T02:58:33.533Z,5.18
2023-01-10T03:01:12.916Z,5.18
2023-01-10T03:03:50.882Z,5.16
2023-01-10T03:06:34.321Z,5.15
2023-01-10T03:09:13.670Z,5.15
2023-01-10T03:11:46.468Z,5.14
2023-01-10T03:14:22.446Z,5.13
2023-01-10T03:16:57.026Z,5.10
2023-01-10T03:19:27.135Z,5.08
2023-01-10T03:21:58.067Z,5.06
2023-01-10T03:24:30.454Z,5.04
2023-01-10T03:27:22.467Z,5.04
2023-01-10T03:29:57.309Z,5.04
2023-01-10T03:32:28.069Z,5.00
2023-01-10T03:34:55.373Z,5.03
2023-01-10T03:37:33.826Z,5.02
2023-01-10T03:40:09.763Z,4.99
2023-01-10T03:43:06.630Z,4.94
2023-01-10T03:45:43.155Z,4.91
2023-01-10T03:48:12.048Z,4.87
2023-01-10T03:50:40.374Z,4.84
2023-01-10T03:53:07.130Z,4.81
2023-01-10T03:55:35.225Z,4.78
2023-01-10T03:58:01.737Z,4.75
2023-01-10T04:00:28.264Z,4.72
2023-01-10T04:02:55.676Z,4.68
2023-01-10T04:05:22.191Z,4.66
2023-01-10T04:07:49.141Z,4.66
2023-01-10T04:10:16.000Z,4.65
2023-01-10T04:12:42.723Z,4.65
2023-01-10T04:15:09.673Z,4.65
2023-01-10T04:17:36.173Z,4.66
2023-01-10T04:20:02.816Z,4.68
2023-01-10T04:22:29.329Z,4.68
2023-01-10T04:24:55.853Z,4.70
2023-01-10T04:27:22.415Z,4.71
2023-01-10T04:29:48.887Z,4.73
2023-01-10T04:32:15.409Z,4.72
2023-01-10T04:34:41.954Z,4.69
2023-01-10T04:37:08.413Z,4.73
2023-01-10T04:39:35.028Z,4.75
2023-01-10T04:42:01.562Z,4.75
2023-01-10T04:44:28.077Z,4.77
2023-01-10T04:46:54.584Z,4.78
2023-01-10T04:49:21.127Z,4.79
2023-01-10T04:51:47.716Z,4.79
2023-01-10T04:54:14.223Z,4.79
2023-01-10T04:56:40.741Z,4.81
2023-01-10T04:59:07.220Z,4.82
2023-01-10T05:01:35.371Z,4.80
2023-01-10T05:04:03.204Z,4.80
2023-01-10T05:06:29.789Z,4.77
2023-01-10T05:08:56.801Z,4.83
2023-01-10T05:11:23.841Z,4.82
2023-01-10T05:13:50.712Z,4.84
2023-01-10T05:16:17.586Z,4.87
2023-01-10T05:18:44.576Z,4.85
2023-01-10T05:21:13.399Z,4.87
2023-01-10T05:23:40.460Z,4.87
2023-01-10T05:26:08.043Z,4.89
2023-01-10T05:28:34.688Z,4.89
2023-01-10T05:31:01.207Z,4.86
2023-01-10T05:33:28.116Z,4.84
2023-01-10T05:35:55.301Z,4.82
2023-01-10T05:38:21.873Z,4.79
2023-01-10T05:40:56.206Z,4.77
2023-01-10T05:43:23.800Z,4.73
2023-01-10T05:45:51.005Z,4.70
2023-01-10T05:48:18.637Z,4.65
2023-01-10T05:50:45.610Z,4.61
2023-01-10T05:53:12.340Z,4.58
2023-01-10T05:55:39.122Z,4.54
2023-01-10T05:58:05.962Z,4.51
2023-01-10T06:00:33.478Z,4.48
2023-01-10T06:03:00.219Z,4.44
2023-01-10T06:05:27.025Z,4.40
2023-01-10T06:07:55.250Z,4.34
2023-01-10T06:10:21.981Z,4.30
2023-01-10T06:12:49.696Z,4.26
2023-01-10T06:15:17.295Z,4.22
2023-01-10T06:17:47.111Z,4.15
2023-01-10T06:20:14.990Z,4.11
2023-01-10T06:22:42.604Z,4.06
2023-01-10T06:25:12.230Z,4.02
2023-01-10T06:27:41.427Z,3.98
2023-01-10T06:30:09.606Z,3.96
2023-01-10T06:32:37.224Z,3.95
2023-01-10T06:35:04.791Z,3.93
2023-01-10T06:37:31.485Z,3.93
2023-01-10T06:39:58.356Z,3.95
2023-01-10T06:42:25.354Z,3.96
2023-01-10T06:44:52.036Z,3.95
2023-01-10T06:47:18.818Z,3.99
2023-01-10T06:49:45.528Z,3.97
2023-01-10T06:52:12.244Z,4.05
2023-01-10T06:54:38.961Z,4.10
2023-01-10T06:57:05.819Z,4.12
2023-01-10T06:59:33.180Z,4.11
2023-01-10T07:01:59.960Z,4.19
2023-01-10T07:04:27.175Z,4.17
2023-01-10T07:06:54.059Z,4.25
2023-01-10T07:09:20.736Z,4.28
2023-01-10T07:11:47.499Z,4.30
2023-01-10T07:14:14.198Z,4.31
2023-01-10T07:16:40.916Z,4.34
2023-01-10T07:19:07.767Z,4.37
2023-01-10T07:21:34.501Z,4.37
2023-01-10T07:24:02.850Z,4.41
2023-01-10T07:26:29.860Z,4.43
2023-01-10T07:28:56.905Z,4.43
2023-01-10T07:31:24.409Z,4.44
2023-01-10T07:33:52.310Z,4.47
2023-01-10T07:36:19.702Z,4.48
2023-01-10T07:38:48.114Z,4.45
2023-01-10T07:41:14.778Z,4.46
2023-01-10T07:43:41.509Z,4.46
2023-01-10T07:46:09.539Z,4.45
2023-01-10T07:48:36.800Z,4.45
2023-01-10T07:51:04.581Z,4.45
2023-01-10T07:53:31.727Z,4.44
2023-01-10T07:56:00.178Z,4.44
2023-01-10T07:58:27.326Z,4.39
2023-01-10T08:00:58.325Z,4.47
2023-01-10T08:03:26.249Z,4.45
2023-01-10T08:06:05.108Z,4.47
2023-01-10T08:08:33.105Z,4.48
2023-01-10T08:11:01.087Z,4.47
2023-01-10T08:13:28.095Z,4.48
2023-01-10T08:15:55.636Z,4.48
2023-01-10T08:18:23.809Z,4.49
2023-01-10T08:20:51.892Z,4.51
2023-01-10T08:23:19.107Z,4.53
2023-01-10T08:25:46.180Z,4.53
2023-01-10T08:28:13.609Z,4.55
2023-01-10T08:30:40.709Z,4.57
2023-01-10T08:33:09.577Z,4.59
2023-01-10T08:35:45.042Z,4.62
2023-01-10T08:38:12.001Z,4.61
2023-01-10T08:40:39.027Z,4.59
2023-01-10T08:43:09.802Z,4.64
2023-01-10T08:45:37.683Z,4.62
2023-01-10T08:48:06.018Z,4.62
2023-01-10T08:50:32.800Z,4.59
2023-01-10T08:53:00.415Z,4.62
2023-01-10T08:55:28.721Z,4.60
2023-01-10T08:57:55.400Z,4.65
2023-01-10T09:00:22.664Z,4.69
2023-01-10T09:02:49.870Z,4.70
2023-01-10T09:05:31.994Z,4.71
2023-01-10T09:08:00.664Z,4.70
2023-01-10T09:10:28.871Z,4.70
2023-01-10T09:13:00.143Z,4.72
2023-01-10T09:15:34.009Z,4.75
2023-01-10T09:18:04.593Z,4.73
2023-01-10T09:20:33.004Z,4.76
2023-01-10T09:23:05.982Z,4.76
2023-01-10T09:25:33.505Z,4.77
2023-01-10T09:28:01.682Z,4.79
2023-01-10T09:30:29.688Z,4.81
2023-01-10T09:32:58.220Z,4.83
2023-01-10T09:35:27.590Z,4.84
2023-01-10T09:37:57.166Z,4.86
2023-01-10T09:40:39.053Z,4.91
2023-01-10T09:43:24.335Z,4.92
2023-01-10T09:45:54.123Z,4.96
2023-01-10T09:48:30.809Z,4.96
2023-01-10T09:51:11.549Z,4.97
2023-01-10T09:53:41.562Z,5.02
2023-01-10T09:56:08.933Z,5.02
2023-01-10T09:58:38.413Z,5.05
2023-01-10T10:01:16.065Z,5.07
2023-01-10T10:03:53.842Z,5.13
2023-01-10T10:06:22.847Z,5.13
2023-01-10T10:08:50.930Z,5.15
2023-01-10T10:11:19.080Z,5.18
2023-01-10T10:14:04.400Z,5.19
2023-01-10T10:17:08.649Z,5.20
2023-01-10T10:20:00.509Z,5.18
2023-01-10T10:22:29.987Z,5.20
2023-01-10T10:25:14.490Z,5.20
2023-01-10T10:27:55.813Z,5.18
2023-01-10T10:30:31.054Z,5.17
2023-01-10T10:33:18.080Z,5.16
2023-01-10T10:35:53.285Z,5.18
2023-01-10T10:38:29.671Z,5.20
2023-01-10T10:40:59.836Z,5.19
2023-01-10T10:43:32.281Z,5.23
2023-01-10T10:46:04.500Z,5.24
2023-01-10T10:48:39.514Z,5.26
2023-01-10T10:51:24.596Z,5.28
2023-01-10T10:53:51.099Z,5.28
2023-01-10T10:56:21.720Z,5.30
2023-01-10T10:58:51.462Z,5.32
2023-01-10T11:01:18.979Z,5.34
2023-01-10T11:03:56.368Z,5.35
2023-01-10T11:06:25.837Z,5.37
2023-01-10T11:08:55.596Z,5.38
2023-01-10T11:11:27.576Z,5.35
2023-01-10T11:13:57.811Z,5.40
2023-01-10T11:16:36.741Z,5.41
2023-01-10T11:19:20.818Z,5.43
2023-01-10T11:21:53.638Z,5.45
2023-01-10T11:24:43.635Z,5.45
2023-01-10T11:27:19.368Z,5.48
2023-01-10T11:29:56.616Z,5.52
2023-01-10T11:32:33.766Z,5.50
2023-01-10T11:35:03.552Z,5.51
2023-01-10T11:37:32.521Z,5.54
2023-01-10T11:40:08.244Z,5.54
2023-01-10T11:42:34.772Z,5.55
2023-01-10T11:45:19.713Z,5.57
2023-01-10T11:48:06.830Z,5.56
2023-01-10T11:50:36.431Z,5.57
2023-01-10T11:53:05.254Z,5.59
2023-01-10T11:55:34.910Z,5.63
2023-01-10T11:58:12.780Z,5.63
2023-01-10T12:00:46.673Z,5.64
2023-01-10T12:03:29.009Z,5.67
2023-01-10T12:06:00.192Z,5.68
2023-01-10T12:08:30.188Z,5.72
2023-01-10T12:11:15.155Z,5.74
2023-01-10T12:13:46.676Z,5.76
2023-01-10T12:16:28.489Z,5.78
2023-01-10T12:18:59.867Z,5.78
2023-01-10T12:21:32.505Z,5.81
2023-01-10T12:24:03.854Z,5.85
2023-01-10T12:26:32.783Z,5.88
2023-01-10T12:29:08.575Z,5.89
2023-01-10T12:31:38.998Z,5.87
2023-01-10T12:34:20.186Z,5.92
2023-01-10T12:36:58.422Z,5.95
2023-01-10T12:39:33.350Z,5.95
2023-01-10T12:42:34.540Z,5.96
2023-01-10T12:45:29.290Z,5.94
2023-01-10T12:48:13.473Z,5.97
2023-01-10T12:51:04.688Z,5.98
2023-01-10T12:53:43.713Z,5.99
2023-01-10T12:56:14.795Z,6.01
2023-01-10T12:58:45.960Z,6.01
2023-01-10T13:01:19.601Z,6.01
2023-01-10T13:03:54.324Z,6.05
2023-01-10T13:06:27.914Z,6.08
2023-01-10T13:08:56.733Z,6.07
2023-01-10T13:11:28.129Z,6.07
2023-01-10T13:14:00.867Z,6.11
2023-01-10T13:16:56.099Z,6.13
2023-01-10T13:19:25.955Z,6.15
2023-01-10T13:22:19.075Z,6.17
2023-01-10T13:25:00.866Z,6.15
2023-01-10T13:27:35.466Z,6.13
2023-01-10T13:30:04.359Z,6.13
2023-01-10T13:32:34.855Z,6.10
2023-01-10T13:35:13.373Z,6.12
2023-01-10T13:37:44.374Z,6.06
2023-01-10T13:40:22.781Z,6.09
2023-01-10T13:43:29.332Z,6.06
2023-01-10T13:46:18.599Z,6.05
2023-01-10T13:48:51.299Z,6.04
2023-01-10T13:51:19.860Z,6.00
2023-01-10T13:53:51.846Z,6.03
2023-01-10T13:56:39.187Z,6.03
2023-01-10T13:59:18.310Z,6.01
2023-01-10T14:02:09.643Z,6.02
2023-01-10T14:04:59.160Z,5.98
2023-01-10T14:07:30.700Z,5.97
2023-01-10T14:10:07.282Z,5.96
2023-01-10T14:12:40.192Z,5.93
2023-01-10T14:15:46.515Z,5.95
2023-01-10T14:18:22.736Z,5.94
2023-01-10T14:21:09.779Z,5.92
2023-01-10T14:23:48.687Z,5.92
2023-01-10T14:26:22.081Z,5.89
2023-01-10T14:28:50.057Z,5.89
2023-01-10T14:31:21.728Z,5.89
2023-01-10T14:33:49.952Z,5.86
2023-01-10T14:36:31.001Z,5.86
2023-01-10T14:39:00.972Z,5.83
2023-01-10T14:41:39.800Z,5.82
2023-01-10T14:44:06.331Z,5.81
2023-01-10T14:46:38.636Z,5.78
2023-01-10T14:49:20.857Z,5.78
2023-01-10T14:51:50.692Z,5.78
2023-01-10T14:54:23.411Z,5.77
2023-01-10T14:56:52.171Z,5.70
2023-01-10T14:59:29.867Z,5.69
2023-01-10T15:02:02.234Z,5.70
2023-01-10T15:04:36.100Z,5.68
2023-01-10T15:07:12.399Z,5.67
2023-01-10T15:09:39.293Z,5.62
2023-01-10T15:12:12.569Z,5.63
2023-01-10T15:14:39.323Z,5.60
2023-01-10T15:17:09.030Z,5.63
2023-01-10T15:19:38.626Z,5.62
2023-01-10T15:22:18.392Z,5.62
2023-01-10T15:25:01.530Z,5.63
2023-01-10T15:27:28.782Z,5.62
2023-01-10T15:29:56.576Z,5.59
2023-01-10T15:32:34.965Z,5.61
2023-01-10T15:35:02.289Z,5.60
2023-01-10T15:37:35.893Z,5.58
2023-01-10T15:40:06.298Z,5.58
2023-01-10T15:42:35.192Z,5.58
2023-01-10T15:45:30.781Z,5.56
2023-01-10T15:48:03.663Z,5.57
2023-01-10T15:50:38.732Z,5.55
2023-01-10T15:53:09.679Z,5.55
2023-01-10T15:55:43.371Z,5.53
2023-01-10T15:58:26.807Z,5.53
2023-01-10T16:00:55.123Z,5.53
2023-01-10T16:03:45.300Z,5.52
2023-01-10T16:06:31.968Z,5.52
2023-01-10T16:09:01.192Z,5.53
2023-01-10T16:11:52.188Z,5.51
2023-01-10T16:14:18.962Z,5.51
2023-01-10T16:16:45.660Z,5.50
2023-01-10T16:19:14.551Z,5.47
2023-01-10T16:21:46.164Z,5.46
2023-01-10T16:24:22.807Z,5.42
2023-01-10T16:26:50.654Z,5.39
2023-01-10T16:29:20.329Z,5.38
2023-01-10T16:31:47.037Z,5.35
2023-01-10T16:34:13.762Z,5.31
2023-01-10T16:36:42.973Z,5.28
2023-01-10T16:39:21.778Z,5.25
2023-01-10T16:42:07.770Z,5.22
2023-01-10T16:44:35.414Z,5.20
2023-01-10T16:47:05.550Z,5.18
2023-01-10T16:49:33.499Z,5.14
2023-01-10T16:52:00.388Z,5.14
2023-01-10T16:54:28.166Z,5.12
2023-01-10T16:56:55.382Z,5.10
2023-01-10T16:59:22.152Z,5.08
2023-01-10T17:01:57.924Z,5.07
2023-01-10T17:04:32.354Z,5.05
2023-01-10T17:06:59.349Z,5.04
2023-01-10T17:09:30.587Z,5.03
2023-01-10T17:12:06.656Z,4.99
2023-01-10T17:14:34.409Z,5.01
2023-01-10T17:17:03.894Z,4.85
2023-01-10T17:19:30.841Z,4.96
2023-01-10T17:21:57.542Z,4.95
2023-01-10T17:24:24.534Z,4.93
2023-01-10T17:26:51.472Z,4.92
2023-01-10T17:29:18.249Z,4.90
2023-01-10T17:31:45.027Z,4.88
2023-01-10T17:34:11.811Z,4.90
2023-01-10T17:36:39.770Z,4.90
2023-01-10T17:39:06.955Z,4.90
2023-01-10T17:41:34.281Z,4.89
2023-01-10T17:44:01.542Z,4.88
2023-01-10T17:46:28.280Z,4.86
2023-01-10T17:48:54.988Z,4.89
2023-01-10T17:51:24.515Z,4.88
2023-01-10T17:53:54.012Z,4.86
2023-01-10T17:56:20.830Z,4.86
2023-01-10T17:58:47.798Z,4.88
2023-01-10T18:01:25.215Z,4.90
2023-01-10T18:03:52.891Z,4.90
2023-01-10T18:06:24.101Z,4.90
2023-01-10T18:08:51.426Z,4.89
2023-01-10T18:11:18.197Z,4.91
2023-01-10T18:13:45.199Z,4.92
2023-01-10T18:16:11.882Z,4.93
2023-01-10T18:18:39.075Z,4.92
2023-01-10T18:21:13.013Z,4.79
2023-01-10T18:23:39.732Z,4.93
2023-01-10T18:26:09.975Z,4.92
2023-01-10T18:28:42.856Z,4.93
2023-01-10T18:31:17.954Z,4.93
2023-01-10T18:33:46.497Z,4.94
2023-01-10T18:36:15.829Z,4.95
2023-01-10T18:38:43.439Z,4.96
2023-01-10T18:41:10.176Z,4.97
2023-01-10T18:43:36.883Z,4.98
2023-01-10T18:46:07.970Z,4.98
2023-01-10T18:48:34.768Z,4.98
2023-01-10T18:51:02.746Z,4.98
2023-01-10T18:53:29.734Z,4.98
2023-01-10T18:55:59.204Z,4.97
2023-01-10T18:58:28.698Z,4.98
2023-01-10T19:00:55.442Z,4.97
2023-01-10T19:03:22.779Z,4.97
2023-01-10T19:05:49.776Z,4.97
2023-01-10T19:08:16.510Z,4.98
2023-01-10T19:11:07.449Z,4.98
2023-01-10T19:13:31.914Z,4.99
2023-01-10T19:16:11.983Z,4.99
2023-01-10T19:18:38.945Z,5.00
2023-01-10T19:21:08.771Z,4.99
2023-01-10T19:23:35.460Z,4.98
2023-01-10T19:26:02.321Z,4.99
2023-01-10T19:28:29.897Z,5.03
2023-01-10T19:31:04.174Z,5.03
2023-01-10T19:33:37.532Z,5.03
2023-01-10T19:36:08.106Z,5.02
2023-01-10T19:38:35.126Z,5.05
2023-01-10T19:41:02.553Z,5.06
2023-01-10T19:43:29.815Z,5.07
2023-01-10T19:45:56.620Z,5.08
2023-01-10T19:48:23.467Z,5.07
2023-01-10T19:50:50.184Z,5.08
2023-01-10T19:53:17.093Z,5.08
2023-01-10T19:55:43.813Z,5.05
2023-01-10T19:58:10.580Z,5.05
2023-01-10T20:00:37.349Z,5.04
2023-01-10T20:03:05.194Z,5.01
2023-01-10T20:05:34.866Z,4.99
2023-01-10T20:08:02.021Z,4.97
2023-01-10T20:10:28.793Z,4.95
2023-01-10T20:12:55.486Z,4.90
2023-01-10T20:15:22.199Z,4.89
2023-01-10T20:17:48.951Z,4.85
2023-01-10T20:20:16.982Z,4.83
2023-01-10T20:22:43.691Z,4.76
2023-01-10T20:25:10.420Z,4.78
2023-01-10T20:27:37.106Z,4.76
2023-01-10T20:30:05.008Z,4.74
2023-01-10T20:32:31.703Z,4.73
2023-01-10T20:34:58.410Z,4.70
2023-01-10T20:37:25.179Z,4.68
2023-01-10T20:39:51.863Z,4.67
2023-01-10T20:42:18.976Z,4.65
2023-01-10T20:44:45.706Z,4.65
2023-01-10T20:47:12.970Z,4.62
2023-01-10T20:49:39.677Z,4.58
2023-01-10T20:52:06.432Z,4.57
2023-01-10T20:54:34.719Z,4.56
2023-01-10T20:57:01.448Z,4.53
2023-01-10T20:59:29.289Z,4.51
2023-01-10T21:01:56.220Z,4.49
2023-01-10T21:04:23.067Z,4.48
2023-01-10T21:06:49.837Z,4.46
2023-01-10T21:09:16.706Z,4.48
2023-01-10T21:11:59.398Z,4.46
2023-01-10T21:14:30.337Z,4.46
2023-01-10T21:16:57.090Z,4.46
2023-01-10T21:19:23.810Z,4.46
2023-01-10T21:21:50.561Z,4.45
2023-01-10T21:24:17.312Z,4.45
2023-01-10T21:26:44.063Z,4.43
2023-01-10T21:29:12.984Z,4.43
2023-01-10T21:31:39.993Z,4.45
2023-01-10T21:34:06.733Z,4.44
2023-01-10T21:36:33.434Z,4.45
2023-01-10T21:39:00.144Z,4.45
2023-01-10T21:41:45.649Z,4.45
2023-01-10T21:44:12.431Z,4.47
2023-01-10T21:46:40.958Z,4.48
2023-01-10T21:49:07.668Z,4.46
2023-01-10T21:51:34.412Z,4.46
2023-01-10T21:54:01.173Z,4.45
2023-01-10T21:56:27.901Z,4.45
2023-01-10T21:58:54.601Z,4.46
2023-01-10T22:01:21.366Z,4.45
2023-01-10T22:03:49.453Z,4.45
2023-01-10T22:06:16.224Z,4.44
2023-01-10T22:08:42.967Z,4.40
2023-01-10T22:11:11.056Z,4.42
2023-01-10T22:13:38.689Z,4.39
2023-01-10T22:16:06.820Z,4.35
2023-01-10T22:18:33.670Z,4.39
2023-01-10T22:21:00.484Z,4.41
2023-01-10T22:23:29.777Z,4.42
2023-01-10T22:26:04.780Z,4.38
2023-01-10T22:28:32.163Z,4.43
2023-01-10T22:30:59.377Z,4.39
2023-01-10T22:33:31.310Z,4.41
2023-01-10T22:36:12.684Z,4.42
2023-01-10T22:38:41.403Z,4.41
2023-01-10T22:41:10.648Z,4.37
2023-01-10T22:43:37.564Z,4.42
2023-01-10T22:46:05.165Z,4.42
2023-01-10T22:48:32.458Z,4.43
2023-01-10T22:51:00.754Z,4.46
2023-01-10T22:53:28.352Z,4.46
2023-01-10T22:55:55.304Z,4.48
2023-01-10T22:58:22.009Z,4.47
2023-01-10T23:00:48.945Z,4.47
2023-01-10T23:03:15.832Z,4.47
2023-01-10T23:05:42.841Z,4.48
2023-01-10T23:08:09.586Z,4.48
2023-01-10T23:10:36.320Z,4.49
2023-01-10T23:13:04.985Z,4.50
2023-01-10T23:15:32.008Z,4.52
2023-01-10T23:17:59.378Z,4.49
2023-01-10T23:20:26.253Z,4.53
2023-01-10T23:22:52.956Z,4.53
2023-01-10T23:25:19.634Z,4.53
2023-01-10T23:27:46.358Z,4.53
2023-01-10T23:30:13.207Z,4.54
2023-01-10T23:32:39.981Z,4.56
2023-01-10T23:35:06.879Z,4.58
2023-01-10T23:37:33.579Z,4.59
2023-01-10T23:40:00.507Z,4.60
2023-01-10T23:42:27.194Z,4.62
2023-01-10T23:44:53.908Z,4.64
2023-01-10T23:47:20.620Z,4.65
2023-01-10T23:49:47.319Z,4.66
2023-01-10T23:52:14.858Z,4.68
2023-01-10T23:54:41.573Z,4.68
2023-01-10T23:57:08.257Z,4.70
2023-01-10T23:59:34.929Z,4.69
